createdAt,value
2018-11-14T00:01:44.002Z,3.70
2018-11-14T00:04:14.647Z,3.87
2018-11-14T00:06:45.217Z,3.43
2018-11-14T00:09:30.531Z,3.27
2018-11-14T00:12:01.154Z,3.27
2018-11-14T00:14:31.606Z,3.40
2018-11-14T00:17:02.193Z,3.57
2018-11-14T00:19:32.775Z,11.17
2018-11-14T00:22:03.416Z,2.83
2018-11-14T00:24:34.053Z,4.33
2018-11-14T00:27:05.490Z,3.60
2018-11-14T00:29:36.052Z,5.30
2018-11-14T00:32:06.647Z,3.10
2018-11-14T00:34:37.302Z,3.20
2018-11-14T00:37:08.026Z,3.33
2018-11-14T00:39:38.566Z,3.50
2018-11-14T00:42:09.093Z,3.33
2018-11-14T00:44:39.648Z,2.97
2018-11-14T00:47:10.200Z,3.40
2018-11-14T00:49:40.769Z,3.43
2018-11-14T00:52:11.272Z,3.20
2018-11-14T00:54:43.287Z,2.80
2018-11-14T00:57:13.796Z,3.50
2018-11-14T00:59:44.334Z,3.03
2018-11-14T01:02:14.834Z,3.17
2018-11-14T01:04:45.354Z,3.67
2018-11-14T01:07:15.942Z,4.13
2018-11-14T01:09:46.503Z,5.03
2018-11-14T01:12:16.984Z,3.13
2018-11-14T01:14:47.505Z,3.27
2018-11-14T01:17:26.059Z,4.73
2018-11-14T01:19:56.446Z,3.50
2018-11-14T01:22:27.003Z,3.43
2018-11-14T01:24:57.523Z,3.27
2018-11-14T01:27:28.140Z,4.30
2018-11-14T01:29:58.673Z,3.10
2018-11-14T01:32:29.238Z,3.20
2018-11-14T01:34:59.925Z,4.10
2018-11-14T01:37:30.631Z,3.23
2018-11-14T01:40:01.045Z,3.57
2018-11-14T01:42:31.616Z,4.50
2018-11-14T01:45:07.531Z,4.03
2018-11-14T01:47:38.066Z,3.13
2018-11-14T01:50:09.769Z,3.23
2018-11-14T01:52:40.528Z,3.30
2018-11-14T01:55:13.290Z,3.57
2018-11-14T01:57:44.045Z,3.80
2018-11-14T02:00:16.602Z,3.10
2018-11-14T02:02:47.178Z,2.87
2018-11-14T02:05:17.877Z,4.80
2018-11-14T02:07:48.396Z,3.37
2018-11-14T02:10:19.976Z,2.70
2018-11-14T02:12:50.477Z,2.63
2018-11-14T02:15:22.187Z,2.93
2018-11-14T02:17:53.266Z,3.30
2018-11-14T02:20:23.854Z,2.73
2018-11-14T02:22:54.622Z,3.27
2018-11-14T02:25:25.227Z,4.63
2018-11-14T02:27:55.853Z,2.77
2018-11-14T02:30:26.411Z,3.10
2018-11-14T02:32:57.029Z,2.77
2018-11-14T02:35:27.483Z,2.60
2018-11-14T02:37:58.412Z,2.97
2018-11-14T02:40:28.911Z,2.50
2018-11-14T02:42:59.424Z,6.57
2018-11-14T02:45:30.066Z,4.40
2018-11-14T02:48:00.558Z,3.27
2018-11-14T02:50:31.113Z,3.27
2018-11-14T02:53:01.643Z,3.70
2018-11-14T02:55:32.162Z,3.73
2018-11-14T02:58:02.844Z,4.47
2018-11-14T03:00:33.364Z,5.00
2018-11-14T03:03:03.982Z,4.30
2018-11-14T03:05:34.582Z,8.43
2018-11-14T03:08:05.113Z,3.60
2018-11-14T03:10:35.655Z,4.23
2018-11-14T03:13:06.759Z,3.37
2018-11-14T03:15:37.314Z,3.30
2018-11-14T03:18:08.006Z,4.63
2018-11-14T03:20:38.483Z,3.57
2018-11-14T03:23:09.016Z,3.73
2018-11-14T03:25:39.497Z,4.13
2018-11-14T03:28:10.117Z,3.77
2018-11-14T03:30:40.810Z,3.83
2018-11-14T03:33:11.390Z,3.30
2018-11-14T03:35:46.849Z,4.20
2018-11-14T03:38:17.369Z,3.23
2018-11-14T03:40:47.931Z,4.00
2018-11-14T03:43:18.381Z,3.10
2018-11-14T03:45:48.911Z,3.47
2018-11-14T03:48:19.357Z,5.50
2018-11-14T03:50:50.020Z,3.83
2018-11-14T03:53:20.680Z,4.07
2018-11-14T03:55:51.328Z,4.70
2018-11-14T03:58:22.117Z,3.73
2018-11-14T04:00:52.672Z,3.27
2018-11-14T04:03:23.351Z,3.53
2018-11-14T04:05:54.038Z,3.77
2018-11-14T04:08:24.581Z,3.70
2018-11-14T04:10:55.145Z,5.07
2018-11-14T04:13:25.718Z,3.73
2018-11-14T04:15:56.312Z,3.50
2018-11-14T04:18:27.149Z,3.90
2018-11-14T04:20:57.798Z,3.27
2018-11-14T04:23:28.438Z,3.10
2018-11-14T04:25:59.036Z,3.37
2018-11-14T04:28:29.630Z,3.33
2018-11-14T04:31:00.190Z,4.23
2018-11-14T04:33:30.786Z,3.30
2018-11-14T04:36:01.382Z,4.07
2018-11-14T04:38:32.166Z,3.10
2018-11-14T04:41:02.762Z,6.07
2018-11-14T04:43:33.341Z,4.33
2018-11-14T04:46:04.643Z,4.07
2018-11-14T04:48:35.729Z,4.47
2018-11-14T04:51:06.702Z,4.20
2018-11-14T04:53:37.215Z,3.50
2018-11-14T04:56:08.152Z,4.03
2018-11-14T04:58:38.977Z,3.97
2018-11-14T05:01:09.470Z,4.33
2018-11-14T05:03:40.010Z,3.50
2018-11-14T05:06:10.542Z,3.73
2018-11-14T05:08:41.153Z,4.07
2018-11-14T05:11:11.663Z,5.10
2018-11-14T05:13:42.232Z,6.23
2018-11-14T05:16:12.795Z,5.00
2018-11-14T05:18:43.524Z,4.33
2018-11-14T05:21:14.106Z,3.70
2018-11-14T05:23:44.625Z,4.87
2018-11-14T05:26:15.153Z,4.37
2018-11-14T05:28:45.617Z,4.27
2018-11-14T05:31:16.159Z,4.63
2018-11-14T05:33:46.678Z,4.27
2018-11-14T05:36:17.259Z,4.30
2018-11-14T05:38:48.058Z,4.63
2018-11-14T05:41:18.629Z,6.03
2018-11-14T05:43:49.274Z,3.80
2018-11-14T05:46:19.893Z,4.53
2018-11-14T05:48:50.446Z,6.73
2018-11-14T05:51:21.022Z,4.03
2018-11-14T05:53:51.670Z,4.07
2018-11-14T05:56:22.149Z,3.43
2018-11-14T05:58:54.543Z,3.50
2018-11-14T06:01:25.070Z,7.77
2018-11-14T06:03:55.662Z,6.87
2018-11-14T06:06:26.220Z,3.43
2018-11-14T06:08:56.840Z,3.00
2018-11-14T06:11:27.468Z,4.97
2018-11-14T06:13:57.984Z,3.80
2018-11-14T06:16:28.584Z,3.70
2018-11-14T06:18:59.283Z,4.10
2018-11-14T06:21:29.772Z,3.33
2018-11-14T06:24:00.336Z,3.73
2018-11-14T06:26:30.906Z,3.40
2018-11-14T06:29:01.396Z,2.87
2018-11-14T06:31:31.941Z,3.30
2018-11-14T06:34:02.447Z,3.40
2018-11-14T06:36:33.100Z,2.63
2018-11-14T06:39:04.096Z,3.17
2018-11-14T06:41:34.721Z,3.43
2018-11-14T06:44:05.258Z,2.90
2018-11-14T06:46:35.861Z,6.73
2018-11-14T06:49:06.606Z,3.10
2018-11-14T06:51:37.220Z,3.47
2018-11-14T06:54:07.888Z,2.90
2018-11-14T06:56:38.568Z,2.80
2018-11-14T06:59:09.564Z,2.70
2018-11-14T07:01:40.135Z,3.20
2018-11-14T07:04:10.783Z,3.97
2018-11-14T07:06:41.360Z,3.70
2018-11-14T07:09:13.329Z,2.60
2018-11-14T07:11:43.876Z,4.77
2018-11-14T07:14:14.498Z,2.50
2018-11-14T07:16:45.151Z,2.33
2018-11-14T07:19:15.935Z,2.77
2018-11-14T07:21:46.422Z,2.30
2018-11-14T07:24:17.144Z,2.47
2018-11-14T07:26:47.730Z,3.97
2018-11-14T07:29:18.290Z,1.97
2018-11-14T07:31:48.979Z,3.23
2018-11-14T07:34:19.609Z,2.27
2018-11-14T07:36:50.243Z,2.13
2018-11-14T07:39:21.108Z,2.50
2018-11-14T07:41:51.655Z,2.77
2018-11-14T07:44:22.189Z,2.30
2018-11-14T07:46:52.680Z,2.37
2018-11-14T07:49:23.267Z,4.90
2018-11-14T07:51:53.870Z,5.63
2018-11-14T07:54:24.596Z,3.23
2018-11-14T07:56:55.102Z,3.53
2018-11-14T07:59:25.843Z,2.90
2018-11-14T08:01:56.419Z,1.97
2018-11-14T08:04:27.100Z,2.57
2018-11-14T08:06:57.654Z,2.60
2018-11-14T08:09:28.188Z,2.67
2018-11-14T08:11:58.703Z,1.83
2018-11-14T08:14:29.344Z,1.80
2018-11-14T08:17:00.217Z,2.57
2018-11-14T08:19:31.937Z,4.23
2018-11-14T08:22:02.557Z,3.47
2018-11-14T08:24:33.071Z,6.60
2018-11-14T08:27:03.659Z,3.80
2018-11-14T08:29:34.162Z,2.40
2018-11-14T08:32:04.630Z,2.40
2018-11-14T08:34:35.271Z,2.43
2018-11-14T08:37:05.963Z,2.57
2018-11-14T08:39:36.671Z,3.03
2018-11-14T08:42:07.557Z,3.93
2018-11-14T08:44:38.167Z,2.77
2018-11-14T08:47:08.764Z,3.73
2018-11-14T08:49:39.267Z,2.70
2018-11-14T08:52:09.875Z,4.60
2018-11-14T08:54:40.460Z,2.23
2018-11-14T08:57:10.968Z,1.73
2018-11-14T08:59:41.631Z,2.40
2018-11-14T09:02:12.279Z,3.53
2018-11-14T09:04:42.893Z,3.00
2018-11-14T09:07:13.426Z,2.47
2018-11-14T09:09:44.110Z,2.27
2018-11-14T09:12:14.652Z,1.77
2018-11-14T09:14:45.395Z,2.80
2018-11-14T09:17:16.080Z,2.53
2018-11-14T09:19:46.735Z,2.43
2018-11-14T09:22:17.339Z,2.10
2018-11-14T09:24:47.977Z,2.87
2018-11-14T09:27:18.686Z,4.20
2018-11-14T09:29:49.287Z,1.80
2018-11-14T09:32:19.831Z,1.80
2018-11-14T09:34:50.645Z,1.80
2018-11-14T09:37:21.387Z,2.03
2018-11-14T09:39:52.218Z,2.00
2018-11-14T09:42:22.728Z,2.50
2018-11-14T09:44:53.663Z,2.20
2018-11-14T09:47:24.202Z,2.10
2018-11-14T09:49:54.721Z,2.10
2018-11-14T09:52:25.328Z,2.90
2018-11-14T09:54:55.794Z,2.43
2018-11-14T09:57:26.554Z,3.97
2018-11-14T09:59:57.223Z,4.77
2018-11-14T10:02:27.756Z,3.43
2018-11-14T10:04:58.409Z,4.13
2018-11-14T10:07:28.849Z,4.13
2018-11-14T10:09:59.364Z,6.03
2018-11-14T10:12:29.896Z,3.00
2018-11-14T10:15:00.502Z,3.00
2018-11-14T10:17:31.053Z,2.10
2018-11-14T10:20:01.841Z,3.17
2018-11-14T10:22:32.310Z,2.67
2018-11-14T10:25:02.878Z,2.50
2018-11-14T10:27:33.436Z,1.90
2018-11-14T10:30:04.160Z,3.67
2018-11-14T10:32:34.662Z,2.40
2018-11-14T10:35:05.292Z,2.33
2018-11-14T10:37:36.948Z,2.77
2018-11-14T10:40:09.402Z,2.53
2018-11-14T10:42:40.777Z,3.00
2018-11-14T10:45:13.237Z,4.87
2018-11-14T10:47:43.813Z,2.63
2018-11-14T10:50:16.638Z,2.73
2018-11-14T10:52:47.292Z,2.97
2018-11-14T10:55:18.298Z,7.10
2018-11-14T10:57:48.819Z,3.67
2018-11-14T11:00:27.465Z,3.70
2018-11-14T11:03:03.340Z,3.20
2018-11-14T11:05:44.475Z,3.77
2018-11-14T11:08:20.377Z,3.13
2018-11-14T11:10:55.839Z,3.80
2018-11-14T11:13:31.315Z,6.07
2018-11-14T11:16:06.592Z,4.30
2018-11-14T11:18:37.311Z,3.40
2018-11-14T11:21:07.909Z,2.70
2018-11-14T11:23:38.711Z,3.23
2018-11-14T11:26:09.170Z,3.13
2018-11-14T11:28:39.870Z,2.63
2018-11-14T11:31:10.451Z,9.50
2018-11-14T11:33:41.099Z,4.07
2018-11-14T11:36:11.600Z,3.70
2018-11-14T11:38:42.162Z,4.30
2018-11-14T11:41:12.779Z,7.17
2018-11-14T11:43:43.349Z,6.47
2018-11-14T11:46:13.859Z,6.60
2018-11-14T11:48:44.308Z,4.37
2018-11-14T11:51:14.948Z,5.60
2018-11-14T11:53:45.517Z,4.63
2018-11-14T11:56:16.132Z,9.23
2018-11-14T11:58:46.777Z,4.30
2018-11-14T12:01:17.658Z,6.77
2018-11-14T12:03:48.198Z,4.00
2018-11-14T12:06:18.865Z,5.30
2018-11-14T12:08:49.386Z,5.17
2018-11-14T12:11:19.971Z,6.23
2018-11-14T12:13:50.751Z,4.03
2018-11-14T12:16:21.343Z,5.20
2018-11-14T12:18:51.853Z,4.57
2018-11-14T12:21:22.398Z,5.53
2018-11-14T12:23:52.903Z,4.87
2018-11-14T12:26:23.446Z,3.90
2018-11-14T12:28:54.102Z,8.53
2018-11-14T12:31:24.684Z,6.50
2018-11-14T12:33:55.215Z,5.53
2018-11-14T12:36:25.794Z,8.93
2018-11-14T12:38:56.293Z,10.07
2018-11-14T12:41:26.979Z,15.43
2018-11-14T12:43:57.594Z,11.37
2018-11-14T12:46:28.263Z,9.53
2018-11-14T12:48:58.810Z,15.77
2018-11-14T12:51:29.351Z,12.40
2018-11-14T12:53:59.944Z,11.13
2018-11-14T12:56:30.546Z,9.50
2018-11-14T12:59:01.123Z,14.40
2018-11-14T13:01:31.867Z,16.07
2018-11-14T13:04:02.453Z,23.13
2018-11-14T13:06:33.011Z,16.63
2018-11-14T13:09:03.946Z,11.17
2018-11-14T13:11:34.503Z,8.10
2018-11-14T13:14:05.515Z,11.63
2018-11-14T13:16:36.180Z,11.23
2018-11-14T13:19:07.080Z,9.93
2018-11-14T13:21:37.885Z,9.00
2018-11-14T13:24:08.408Z,11.60
2018-11-14T13:26:38.949Z,13.30
2018-11-14T13:29:09.567Z,14.27
2018-11-14T13:31:40.172Z,16.07
2018-11-14T13:34:10.717Z,16.93
2018-11-14T13:36:41.188Z,10.27
2018-11-14T13:39:12.315Z,34.00
2018-11-14T13:41:42.979Z,13.63
2018-11-14T13:44:13.494Z,14.37
2018-11-14T13:46:44.059Z,11.33
2018-11-14T13:49:14.801Z,14.60
2018-11-14T13:51:45.125Z,22.27
2018-11-14T13:54:17.032Z,17.90
2018-11-14T13:56:47.598Z,22.27
2018-11-14T13:59:18.113Z,22.77
2018-11-14T14:01:48.748Z,17.10
2018-11-14T14:04:19.320Z,29.30
2018-11-14T14:06:49.937Z,29.50
2018-11-14T14:09:21.310Z,29.77
2018-11-14T14:11:51.962Z,24.73
2018-11-14T14:14:22.560Z,26.63
2018-11-14T14:16:53.079Z,18.53
2018-11-14T14:19:23.727Z,16.03
2018-11-14T14:21:54.656Z,17.80
2018-11-14T14:24:25.325Z,19.23
2018-11-14T14:26:55.812Z,22.17
2018-11-14T14:29:26.406Z,25.30
2018-11-14T14:31:56.986Z,20.27
2018-11-14T14:34:27.556Z,25.60
2018-11-14T14:36:58.069Z,25.43
2018-11-14T14:39:28.628Z,22.00
2018-11-14T14:42:00.244Z,31.93
2018-11-14T14:44:30.819Z,42.47
2018-11-14T14:47:01.343Z,36.00
2018-11-14T14:49:33.944Z,51.20
2018-11-14T14:52:05.288Z,37.80
2018-11-14T14:54:39.120Z,33.30
2018-11-14T14:57:10.409Z,85.03
2018-11-14T14:59:42.804Z,63.73
2018-11-14T15:02:14.434Z,67.83
2018-11-14T15:04:50.178Z,61.07
2018-11-14T15:07:28.544Z,72.87
2018-11-14T15:10:21.616Z,51.43
2018-11-14T15:12:55.175Z,35.83
2018-11-14T15:15:27.306Z,35.53
2018-11-14T15:17:59.125Z,52.87
2018-11-14T15:20:38.395Z,83.00
2018-11-14T15:23:11.085Z,67.17
2018-11-14T15:25:41.687Z,32.43
2018-11-14T15:28:12.213Z,53.67
2018-11-14T15:30:42.834Z,42.87
2018-11-14T15:33:13.376Z,27.47
2018-11-14T15:35:44.154Z,23.00
2018-11-14T15:38:14.773Z,25.43
2018-11-14T15:40:45.460Z,23.67
2018-11-14T15:43:16.329Z,22.90
2018-11-14T15:45:46.927Z,23.00
2018-11-14T15:48:17.445Z,31.00
2018-11-14T15:50:48.071Z,22.70
2018-11-14T15:53:18.709Z,20.60
2018-11-14T15:55:49.291Z,23.67
2018-11-14T15:58:19.904Z,22.20
2018-11-14T16:00:50.480Z,17.17
2018-11-14T16:03:21.109Z,12.63
2018-11-14T16:05:51.655Z,21.83
2018-11-14T16:08:22.251Z,49.13
2018-11-14T16:10:52.992Z,19.33
2018-11-14T16:13:23.658Z,18.80
2018-11-14T16:15:54.259Z,11.70
2018-11-14T16:18:24.893Z,15.13
2018-11-14T16:20:55.524Z,13.23
2018-11-14T16:23:26.285Z,13.93
2018-11-14T16:25:56.961Z,13.67
2018-11-14T16:28:27.593Z,14.53
2018-11-14T16:30:58.245Z,19.00
2018-11-14T16:33:29.264Z,20.13
2018-11-14T16:35:59.944Z,18.13
2018-11-14T16:38:30.643Z,19.80
2018-11-14T16:41:01.264Z,23.50
2018-11-14T16:43:32.026Z,15.63
2018-11-14T16:46:02.607Z,22.20
2018-11-14T16:48:33.321Z,36.43
2018-11-14T16:51:06.067Z,39.00
2018-11-14T16:53:38.143Z,30.23
2018-11-14T16:56:09.351Z,25.47
2018-11-14T16:58:39.974Z,23.77
2018-11-14T17:01:10.887Z,22.70
2018-11-14T17:03:41.788Z,34.27
2018-11-14T17:06:12.784Z,30.03
2018-11-14T17:08:43.431Z,31.53
2018-11-14T17:11:14.150Z,34.57
2018-11-14T17:13:44.733Z,53.33
2018-11-14T17:16:15.416Z,58.97
2018-11-14T17:18:46.115Z,60.50
2018-11-14T17:21:16.726Z,55.43
2018-11-14T17:23:47.548Z,49.57
2018-11-14T17:26:18.371Z,30.07
2018-11-14T17:28:48.982Z,24.00
2018-11-14T17:31:19.668Z,24.50
2018-11-14T17:33:50.280Z,29.10
2018-11-14T17:36:20.850Z,25.97
2018-11-14T17:38:51.492Z,26.70
2018-11-14T17:41:22.253Z,22.20
2018-11-14T17:43:54.174Z,22.10
2018-11-14T17:46:25.074Z,23.43
2018-11-14T17:48:55.873Z,17.60
2018-11-14T17:51:26.454Z,20.40
2018-11-14T17:53:57.007Z,20.77
2018-11-14T17:56:27.740Z,17.60
2018-11-14T17:58:58.446Z,40.20
2018-11-14T18:01:28.988Z,33.63
2018-11-14T18:03:59.631Z,27.57
2018-11-14T18:06:30.295Z,29.03
2018-11-14T18:09:00.851Z,43.20
2018-11-14T18:11:31.672Z,38.77
2018-11-14T18:14:02.218Z,36.63
2018-11-14T18:16:32.879Z,38.50
2018-11-14T18:19:03.496Z,48.93
2018-11-14T18:21:34.154Z,59.83
2018-11-14T18:24:04.991Z,32.60
2018-11-14T18:26:35.638Z,32.20
2018-11-14T18:29:06.373Z,38.30
2018-11-14T18:31:37.053Z,29.17
2018-11-14T18:34:07.591Z,32.67
2018-11-14T18:36:38.245Z,31.23
2018-11-14T18:39:12.112Z,43.40
2018-11-14T18:41:43.033Z,58.83
2018-11-14T18:44:13.902Z,38.57
2018-11-14T18:46:44.479Z,52.23
2018-11-14T18:49:15.051Z,51.33
2018-11-14T18:51:45.554Z,49.67
2018-11-14T18:54:16.060Z,49.63
2018-11-14T18:56:46.550Z,40.23
2018-11-14T18:59:17.145Z,43.63
2018-11-14T19:01:47.776Z,22.63
2018-11-14T19:04:18.503Z,24.03
2018-11-14T19:06:49.263Z,32.13
2018-11-14T19:09:19.791Z,26.23
2018-11-14T19:11:50.435Z,38.03
2018-11-14T19:14:21.010Z,34.57
2018-11-14T19:16:51.495Z,58.37
2018-11-14T19:19:22.095Z,35.07
2018-11-14T19:21:52.714Z,24.57
2018-11-14T19:24:23.638Z,32.37
2018-11-14T19:26:54.213Z,23.67
2018-11-14T19:29:24.833Z,18.80
2018-11-14T19:31:55.389Z,21.17
2018-11-14T19:34:25.869Z,23.50
2018-11-14T19:36:56.395Z,21.13
2018-11-14T19:39:26.873Z,21.10
2018-11-14T19:41:57.382Z,22.03
2018-11-14T19:44:28.046Z,18.20
2018-11-14T19:46:58.614Z,20.20
2018-11-14T19:49:29.274Z,19.47
2018-11-14T19:51:59.723Z,22.13
2018-11-14T19:54:30.287Z,38.63
2018-11-14T19:57:00.734Z,39.30
2018-11-14T19:59:31.223Z,99.70
2018-11-14T20:02:01.808Z,32.00
2018-11-14T20:04:32.706Z,45.20
2018-11-14T20:07:03.347Z,53.47
2018-11-14T20:09:33.878Z,53.40
2018-11-14T20:12:04.522Z,76.63
2018-11-14T20:14:35.147Z,82.63
2018-11-14T20:17:05.861Z,72.37
2018-11-14T20:19:36.453Z,71.10
2018-11-14T20:22:07.102Z,55.30
2018-11-14T20:24:37.817Z,40.87
2018-11-14T20:27:08.439Z,40.10
2018-11-14T20:29:39.014Z,91.70
2018-11-14T20:32:09.678Z,71.40
2018-11-14T20:34:41.076Z,61.53
2018-11-14T20:37:11.836Z,57.60
2018-11-14T20:39:42.464Z,40.77
2018-11-14T20:42:13.262Z,41.87
2018-11-14T20:44:43.854Z,46.67
2018-11-14T20:47:14.449Z,28.33
2018-11-14T20:49:45.048Z,25.77
2018-11-14T20:52:15.517Z,29.83
2018-11-14T20:54:46.150Z,24.13
2018-11-14T20:57:16.789Z,26.47
2018-11-14T20:59:47.370Z,23.47
2018-11-14T21:02:18.140Z,23.47
2018-11-14T21:04:49.093Z,19.20
2018-11-14T21:07:19.619Z,22.97
2018-11-14T21:09:50.210Z,20.27
2018-11-14T21:12:20.777Z,21.00
2018-11-14T21:14:51.388Z,22.07
2018-11-14T21:17:21.985Z,29.23
2018-11-14T21:19:53.151Z,25.97
2018-11-14T21:22:23.744Z,32.73
2018-11-14T21:24:54.491Z,27.73
2018-11-14T21:27:25.118Z,25.90
2018-11-14T21:29:55.702Z,22.13
2018-11-14T21:32:26.326Z,21.80
2018-11-14T21:34:56.909Z,24.10
2018-11-14T21:37:27.627Z,22.43
2018-11-14T21:39:58.246Z,19.97
2018-11-14T21:42:28.879Z,19.73
2018-11-14T21:44:59.636Z,22.50
2018-11-14T21:47:35.951Z,21.20
2018-11-14T21:50:06.759Z,19.65
2018-11-14T21:52:39.358Z,22.10
2018-11-14T21:55:11.226Z,21.50
2018-11-14T21:57:42.015Z,19.57
2018-11-14T22:00:17.591Z,20.00
2018-11-14T22:02:49.660Z,21.67
2018-11-14T22:05:20.528Z,21.80
2018-11-14T22:07:51.136Z,17.87
2018-11-14T22:10:23.445Z,23.20
2018-11-14T22:12:54.328Z,24.27
2018-11-14T22:15:25.900Z,19.27
2018-11-14T22:17:56.455Z,23.17
2018-11-14T22:20:27.882Z,20.70
2018-11-14T22:22:58.577Z,25.80
2018-11-14T22:25:30.428Z,23.87
2018-11-14T22:28:01.268Z,21.93
2018-11-14T22:30:33.962Z,21.47
2018-11-14T22:33:04.717Z,30.03
2018-11-14T22:35:38.886Z,30.23
2018-11-14T22:38:21.793Z,29.83
2018-11-14T22:40:56.936Z,22.33
2018-11-14T22:43:27.731Z,25.93
2018-11-14T22:46:12.738Z,29.17
2018-11-14T22:48:43.457Z,25.70
2018-11-14T22:51:14.059Z,26.97
2018-11-14T22:53:45.710Z,27.17
2018-11-14T22:56:24.569Z,26.73
2018-11-14T22:58:55.355Z,32.03
2018-11-14T23:01:25.935Z,32.63
2018-11-14T23:03:56.531Z,43.60
2018-11-14T23:06:27.423Z,38.33
2018-11-14T23:08:57.994Z,45.00
2018-11-14T23:11:28.609Z,34.23
2018-11-14T23:13:59.209Z,32.30
2018-11-14T23:16:29.837Z,30.33
2018-11-14T23:19:00.435Z,28.90
2018-11-14T23:21:31.028Z,30.17
2018-11-14T23:24:01.748Z,29.00
2018-11-14T23:26:32.821Z,25.97
2018-11-14T23:29:03.492Z,29.87
2018-11-14T23:31:34.109Z,26.17
2018-11-14T23:34:04.742Z,31.67
2018-11-14T23:36:35.318Z,24.80
2018-11-14T23:39:08.301Z,29.43
2018-11-14T23:41:38.870Z,22.70
2018-11-14T23:44:09.531Z,25.13
2018-11-14T23:46:40.118Z,21.43
2018-11-14T23:49:10.709Z,25.30
2018-11-14T23:51:41.329Z,22.33
2018-11-14T23:54:12.008Z,24.30
2018-11-14T23:56:42.552Z,24.27
2018-11-14T23:59:13.180Z,37.00
